createdAt,value
2018-12-19T00:00:03.831Z,25.55
2018-12-19T00:01:07.466Z,23.18
2018-12-19T00:02:11.094Z,23.12
2018-12-19T00:03:14.772Z,24.12
2018-12-19T00:04:18.390Z,24.70
2018-12-19T00:05:22.005Z,24.65
2018-12-19T00:06:25.632Z,24.00
2018-12-19T00:07:29.256Z,24.45
2018-12-19T00:08:32.881Z,25.37
2018-12-19T00:09:36.571Z,24.80
2018-12-19T00:10:40.265Z,24.07
2018-12-19T00:11:43.843Z,24.80
2018-12-19T00:12:47.565Z,24.30
2018-12-19T00:13:51.181Z,25.65
2018-12-19T00:14:54.792Z,27.05
2018-12-19T00:15:58.425Z,26.42
2018-12-19T00:17:02.192Z,25.92
2018-12-19T00:18:05.816Z,26.20
2018-12-19T00:19:09.557Z,27.40
2018-12-19T00:20:13.253Z,26.37
2018-12-19T00:21:16.917Z,26.97
2018-12-19T00:22:20.577Z,26.27
2018-12-19T00:23:24.141Z,26.85
2018-12-19T00:24:27.765Z,27.10
2018-12-19T00:25:31.487Z,25.77
2018-12-19T00:26:35.165Z,26.27
2018-12-19T00:27:39.144Z,26.33
2018-12-19T00:28:43.124Z,25.70
2018-12-19T00:29:46.745Z,25.45
2018-12-19T00:30:50.406Z,25.80
2018-12-19T00:31:54.025Z,26.10
2018-12-19T00:32:57.648Z,25.48
2018-12-19T00:34:01.334Z,26.00
2018-12-19T00:35:05.818Z,26.82
2018-12-19T00:36:09.646Z,25.90
2018-12-19T00:37:13.417Z,26.73
2018-12-19T00:38:17.064Z,26.82
2018-12-19T00:39:20.685Z,26.27
2018-12-19T00:40:24.289Z,25.75
2018-12-19T00:41:27.975Z,26.55
2018-12-19T00:42:31.662Z,26.93
2018-12-19T00:43:35.251Z,26.95
2018-12-19T00:44:38.930Z,26.65
2018-12-19T00:45:42.634Z,26.35
2018-12-19T00:46:46.261Z,26.30
2018-12-19T00:47:49.860Z,26.82
2018-12-19T00:48:53.476Z,27.45
2018-12-19T00:49:57.172Z,28.10
2018-12-19T00:51:00.792Z,28.62
2018-12-19T00:52:04.486Z,27.52
2018-12-19T00:53:08.172Z,28.75
2018-12-19T00:54:11.860Z,28.92
2018-12-19T00:55:15.563Z,28.10
2018-12-19T00:56:19.257Z,28.47
2018-12-19T00:57:22.846Z,28.10
2018-12-19T00:58:26.643Z,28.15
2018-12-19T00:59:30.225Z,28.50
2018-12-19T01:00:33.922Z,26.97
2018-12-19T01:01:37.556Z,27.55
2018-12-19T01:02:41.261Z,28.52
2018-12-19T01:03:44.953Z,27.60
2018-12-19T01:04:48.649Z,28.32
2018-12-19T01:05:52.271Z,27.93
2018-12-19T01:06:55.897Z,29.87
2018-12-19T01:07:59.516Z,27.90
2018-12-19T01:09:05.077Z,28.65
2018-12-19T01:10:08.842Z,28.17
2018-12-19T01:11:12.477Z,29.82
2018-12-19T01:12:16.101Z,27.90
2018-12-19T01:13:19.789Z,28.35
2018-12-19T01:14:23.472Z,28.25
2018-12-19T01:15:27.097Z,26.85
2018-12-19T01:16:31.103Z,27.58
2018-12-19T01:17:34.796Z,27.70
2018-12-19T01:18:38.409Z,29.87
2018-12-19T01:19:42.036Z,27.42
2018-12-19T01:20:45.733Z,27.70
2018-12-19T01:21:49.409Z,27.85
2018-12-19T01:22:53.093Z,29.02
2018-12-19T01:23:56.873Z,27.60
2018-12-19T01:25:00.501Z,27.42
2018-12-19T01:26:04.364Z,27.87
2018-12-19T01:27:07.989Z,27.22
2018-12-19T01:28:11.781Z,26.15
2018-12-19T01:29:15.370Z,27.80
2018-12-19T01:30:18.978Z,25.20
2018-12-19T01:31:22.656Z,27.20
2018-12-19T01:32:26.333Z,26.50
2018-12-19T01:33:30.474Z,26.87
2018-12-19T01:34:34.087Z,26.65
2018-12-19T01:35:37.845Z,25.92
2018-12-19T01:36:41.466Z,24.60
2018-12-19T01:37:45.101Z,27.20
2018-12-19T01:38:48.722Z,26.87
2018-12-19T01:39:52.336Z,26.48
2018-12-19T01:40:55.952Z,26.55
2018-12-19T01:42:00.188Z,26.15
2018-12-19T01:43:03.973Z,25.27
2018-12-19T01:44:07.603Z,27.07
2018-12-19T01:45:11.235Z,25.92
2018-12-19T01:46:14.929Z,26.55
2018-12-19T01:47:18.662Z,25.77
2018-12-19T01:48:22.253Z,26.62
2018-12-19T01:49:25.876Z,26.25
2018-12-19T01:50:29.561Z,25.32
2018-12-19T01:51:33.273Z,25.50
2018-12-19T01:52:36.897Z,24.90
2018-12-19T01:53:40.513Z,27.37
2018-12-19T01:54:44.177Z,26.05
2018-12-19T01:55:48.029Z,25.77
2018-12-19T01:56:51.665Z,25.12
2018-12-19T01:57:55.382Z,25.97
2018-12-19T01:58:58.956Z,25.50
2018-12-19T02:00:03.558Z,26.35
2018-12-19T02:01:07.170Z,25.75
2018-12-19T02:02:10.865Z,25.72
2018-12-19T02:03:14.568Z,23.98
2018-12-19T02:04:18.180Z,25.17
2018-12-19T02:05:22.051Z,25.10
2018-12-19T02:06:25.743Z,24.37
2018-12-19T02:07:29.435Z,25.37
2018-12-19T02:08:33.101Z,25.75
2018-12-19T02:09:36.704Z,25.57
2018-12-19T02:10:40.402Z,25.75
2018-12-19T02:11:44.112Z,24.37
2018-12-19T02:12:47.737Z,25.15
2018-12-19T02:13:51.373Z,24.63
2018-12-19T02:14:54.989Z,24.72
2018-12-19T02:15:58.679Z,25.17
2018-12-19T02:17:02.376Z,25.25
2018-12-19T02:18:06.021Z,23.52
2018-12-19T02:19:09.750Z,24.77
2018-12-19T02:20:14.056Z,24.20
2018-12-19T02:21:17.700Z,24.20
2018-12-19T02:22:21.401Z,24.82
2018-12-19T02:23:25.134Z,23.92
2018-12-19T02:24:28.827Z,23.75
2018-12-19T02:25:32.519Z,23.60
2018-12-19T02:26:36.116Z,22.70
2018-12-19T02:27:39.739Z,23.27
2018-12-19T02:28:43.454Z,23.27
2018-12-19T02:29:47.156Z,23.50
2018-12-19T02:30:50.781Z,23.12
2018-12-19T02:31:54.410Z,22.87
2018-12-19T02:32:58.095Z,23.83
2018-12-19T02:34:01.780Z,23.45
2018-12-19T02:35:05.554Z,24.43
2018-12-19T02:36:09.176Z,23.45
2018-12-19T02:37:12.867Z,23.87
2018-12-19T02:38:16.548Z,23.12
2018-12-19T02:39:20.173Z,23.40
2018-12-19T02:40:23.792Z,22.42
2018-12-19T02:41:27.425Z,24.80
2018-12-19T02:42:31.068Z,22.50
2018-12-19T02:43:34.746Z,22.10
2018-12-19T02:44:38.365Z,23.55
2018-12-19T02:45:41.988Z,22.80
2018-12-19T02:46:45.595Z,23.85
2018-12-19T02:47:49.344Z,23.92
2018-12-19T02:48:52.947Z,23.00
2018-12-19T02:49:56.590Z,22.35
2018-12-19T02:51:00.271Z,23.00
2018-12-19T02:52:03.901Z,23.70
2018-12-19T02:53:08.222Z,22.60
2018-12-19T02:54:12.024Z,22.02
2018-12-19T02:55:15.612Z,23.47
2018-12-19T02:56:19.360Z,21.80
2018-12-19T02:57:23.125Z,23.90
2018-12-19T02:58:26.791Z,23.10
2018-12-19T02:59:30.496Z,23.15
2018-12-19T03:00:34.132Z,24.30
2018-12-19T03:01:37.738Z,24.40
2018-12-19T03:02:41.361Z,22.85
2018-12-19T03:03:44.966Z,23.50
2018-12-19T03:04:48.591Z,22.42
2018-12-19T03:05:52.291Z,23.12
2018-12-19T03:06:55.941Z,24.45
2018-12-19T03:07:59.544Z,23.40
2018-12-19T03:09:06.892Z,23.50
2018-12-19T03:10:10.539Z,23.00
2018-12-19T03:11:14.275Z,24.18
2018-12-19T03:12:17.880Z,22.80
2018-12-19T03:13:21.502Z,22.67
2018-12-19T03:14:25.193Z,23.98
2018-12-19T03:15:28.875Z,23.57
2018-12-19T03:16:32.657Z,22.77
2018-12-19T03:17:36.332Z,24.43
2018-12-19T03:18:40.035Z,22.85
2018-12-19T03:19:43.768Z,24.47
2018-12-19T03:20:47.517Z,23.38
2018-12-19T03:21:51.223Z,24.15
2018-12-19T03:22:54.907Z,22.77
2018-12-19T03:23:58.524Z,22.52
2018-12-19T03:25:02.207Z,23.98
2018-12-19T03:26:05.884Z,23.20
2018-12-19T03:27:09.514Z,23.00
2018-12-19T03:28:13.184Z,22.98
2018-12-19T03:29:16.944Z,22.52
2018-12-19T03:30:20.761Z,22.98
2018-12-19T03:31:24.562Z,23.55
2018-12-19T03:32:28.308Z,23.32
2018-12-19T03:33:31.989Z,23.73
2018-12-19T03:34:35.673Z,23.52
2018-12-19T03:35:39.353Z,24.10
2018-12-19T03:36:42.979Z,23.65
2018-12-19T03:37:46.728Z,22.75
2018-12-19T03:38:50.338Z,23.05
2018-12-19T03:39:53.961Z,23.60
2018-12-19T03:40:57.660Z,23.60
2018-12-19T03:42:01.284Z,22.60
2018-12-19T03:43:05.267Z,22.17
2018-12-19T03:44:08.938Z,21.65
2018-12-19T03:45:12.732Z,22.73
2018-12-19T03:46:16.510Z,22.45
2018-12-19T03:47:20.232Z,23.22
2018-12-19T03:48:29.294Z,23.25
2018-12-19T03:49:33.174Z,23.27
2018-12-19T03:50:36.797Z,22.87
2018-12-19T03:51:41.178Z,24.90
2018-12-19T03:52:44.865Z,23.00
2018-12-19T03:53:48.473Z,24.95
2018-12-19T03:54:52.098Z,24.50
2018-12-19T03:55:55.737Z,22.35
2018-12-19T03:56:59.734Z,25.20
2018-12-19T03:58:03.414Z,23.32
2018-12-19T03:59:07.108Z,23.25
2018-12-19T04:00:10.902Z,22.85
2018-12-19T04:01:14.595Z,21.85
2018-12-19T04:02:18.309Z,22.48
2018-12-19T04:03:21.941Z,23.00
2018-12-19T04:04:25.621Z,21.82
2018-12-19T04:05:29.341Z,22.95
2018-12-19T04:06:33.100Z,22.65
2018-12-19T04:07:36.849Z,22.93
2018-12-19T04:08:40.457Z,22.67
2018-12-19T04:09:44.076Z,22.32
2018-12-19T04:10:47.758Z,22.15
2018-12-19T04:11:51.445Z,22.02
2018-12-19T04:12:55.112Z,21.82
2018-12-19T04:13:58.681Z,23.02
2018-12-19T04:15:02.374Z,21.50
2018-12-19T04:16:06.123Z,21.90
2018-12-19T04:17:09.758Z,22.32
2018-12-19T04:18:13.377Z,22.32
2018-12-19T04:19:17.046Z,21.12
2018-12-19T04:20:20.654Z,23.12
2018-12-19T04:21:24.370Z,22.15
2018-12-19T04:22:28.050Z,22.67
2018-12-19T04:23:32.573Z,21.75
2018-12-19T04:24:36.208Z,21.37
2018-12-19T04:25:39.874Z,21.33
2018-12-19T04:26:43.463Z,22.17
2018-12-19T04:27:47.073Z,21.90
2018-12-19T04:28:50.687Z,20.85
2018-12-19T04:29:54.388Z,20.70
2018-12-19T04:30:58.095Z,21.37
2018-12-19T04:32:01.754Z,22.80
2018-12-19T04:33:05.479Z,21.80
2018-12-19T04:34:09.065Z,22.15
2018-12-19T04:35:12.672Z,22.50
2018-12-19T04:36:16.430Z,22.15
2018-12-19T04:37:20.061Z,21.52
2018-12-19T04:38:23.717Z,21.48
2018-12-19T04:39:27.336Z,21.33
2018-12-19T04:40:30.945Z,22.42
2018-12-19T04:41:34.625Z,21.70
2018-12-19T04:42:38.241Z,21.70
2018-12-19T04:43:42.101Z,22.32
2018-12-19T04:44:45.793Z,21.48
2018-12-19T04:45:49.395Z,21.40
2018-12-19T04:46:53.005Z,21.50
2018-12-19T04:47:56.692Z,21.37
2018-12-19T04:49:00.313Z,22.42
2018-12-19T04:50:04.566Z,20.62
2018-12-19T04:51:08.165Z,20.20
2018-12-19T04:52:11.792Z,21.55
2018-12-19T04:53:15.415Z,21.05
2018-12-19T04:54:19.021Z,20.35
2018-12-19T04:55:22.637Z,20.12
2018-12-19T04:56:26.320Z,20.62
2018-12-19T04:57:29.946Z,20.43
2018-12-19T04:58:33.594Z,19.37
2018-12-19T04:59:37.289Z,20.70
2018-12-19T05:00:40.926Z,20.15
2018-12-19T05:01:44.673Z,20.02
2018-12-19T05:02:48.249Z,20.02
2018-12-19T05:03:51.989Z,20.77
2018-12-19T05:04:55.604Z,21.12
2018-12-19T05:05:59.240Z,21.00
2018-12-19T05:07:02.996Z,20.82
2018-12-19T05:08:06.702Z,20.97
2018-12-19T05:09:10.589Z,21.05
2018-12-19T05:10:14.343Z,19.65
2018-12-19T05:11:18.089Z,19.87
2018-12-19T05:12:21.866Z,21.02
2018-12-19T05:13:25.627Z,20.40
2018-12-19T05:14:29.668Z,19.48
2018-12-19T05:15:33.497Z,21.48
2018-12-19T05:16:37.191Z,20.45
2018-12-19T05:17:40.987Z,20.25
2018-12-19T05:18:44.682Z,20.72
2018-12-19T05:19:48.577Z,19.20
2018-12-19T05:20:52.152Z,18.77
2018-12-19T05:21:55.809Z,20.35
2018-12-19T05:22:59.417Z,19.62
2018-12-19T05:24:04.057Z,18.98
2018-12-19T05:25:10.614Z,18.62
2018-12-19T05:26:14.229Z,17.40
2018-12-19T05:27:17.935Z,19.10
2018-12-19T05:28:21.703Z,19.05
2018-12-19T05:29:25.349Z,18.45
2018-12-19T05:30:29.037Z,18.75
2018-12-19T05:31:32.677Z,19.77
2018-12-19T05:32:36.473Z,18.77
2018-12-19T05:33:40.135Z,19.52
2018-12-19T05:34:43.734Z,18.67
2018-12-19T05:35:47.490Z,18.62
2018-12-19T05:36:51.117Z,19.82
2018-12-19T05:37:54.748Z,17.90
2018-12-19T05:38:58.492Z,18.32
2018-12-19T05:40:02.261Z,18.80
2018-12-19T05:41:05.834Z,18.67
2018-12-19T05:42:09.566Z,18.80
2018-12-19T05:43:13.265Z,19.60
2018-12-19T05:44:16.965Z,18.87
2018-12-19T05:45:20.787Z,18.42
2018-12-19T05:46:24.361Z,18.15
2018-12-19T05:47:28.391Z,18.02
2018-12-19T05:48:32.060Z,17.95
2018-12-19T05:49:35.836Z,17.92
2018-12-19T05:50:39.464Z,18.30
2018-12-19T05:51:43.074Z,18.57
2018-12-19T05:52:46.730Z,17.85
2018-12-19T05:53:50.336Z,17.65
2018-12-19T05:54:54.091Z,17.12
2018-12-19T05:55:57.930Z,18.50
2018-12-19T05:57:01.713Z,17.20
2018-12-19T05:58:05.401Z,16.70
2018-12-19T05:59:09.101Z,17.42
2018-12-19T06:00:12.904Z,16.97
2018-12-19T06:01:16.608Z,17.27
2018-12-19T06:02:20.381Z,17.48
2018-12-19T06:03:24.053Z,17.52
2018-12-19T06:04:27.666Z,17.73
2018-12-19T06:05:31.336Z,18.25
2018-12-19T06:06:35.021Z,17.60
2018-12-19T06:07:38.665Z,16.77
2018-12-19T06:08:42.329Z,17.42
2018-12-19T06:09:46.004Z,16.82
2018-12-19T06:10:49.688Z,17.12
2018-12-19T06:11:53.411Z,18.00
2018-12-19T06:12:56.993Z,16.67
2018-12-19T06:14:00.605Z,17.20
2018-12-19T06:15:04.696Z,17.35
2018-12-19T06:16:08.337Z,17.42
2018-12-19T06:17:12.073Z,17.52
2018-12-19T06:18:15.694Z,17.57
2018-12-19T06:19:19.317Z,16.85
2018-12-19T06:20:22.933Z,16.80
2018-12-19T06:21:26.640Z,16.67
2018-12-19T06:22:30.344Z,17.32
2018-12-19T06:23:34.062Z,17.02
2018-12-19T06:24:37.724Z,17.10
2018-12-19T06:25:41.521Z,17.15
2018-12-19T06:26:45.112Z,16.50
2018-12-19T06:27:48.793Z,17.05
2018-12-19T06:28:52.416Z,16.97
2018-12-19T06:29:56.389Z,17.12
2018-12-19T06:31:00.093Z,16.57
2018-12-19T06:32:03.831Z,16.45
2018-12-19T06:33:07.452Z,18.35
2018-12-19T06:34:11.070Z,16.87
2018-12-19T06:35:14.753Z,17.42
2018-12-19T06:36:18.437Z,17.30
2018-12-19T06:37:22.220Z,16.32
2018-12-19T06:38:25.829Z,16.48
2018-12-19T06:39:29.525Z,16.57
2018-12-19T06:40:33.219Z,16.05
2018-12-19T06:41:36.862Z,16.97
2018-12-19T06:42:40.622Z,16.07
2018-12-19T06:43:45.301Z,16.23
2018-12-19T06:44:48.909Z,15.45
2018-12-19T06:45:52.595Z,16.40
2018-12-19T06:46:56.295Z,16.32
2018-12-19T06:48:00.193Z,17.35
2018-12-19T06:49:03.843Z,16.23
2018-12-19T06:50:08.974Z,16.77
2018-12-19T06:51:12.596Z,16.32
2018-12-19T06:52:16.232Z,17.10
2018-12-19T06:53:19.928Z,16.95
2018-12-19T06:54:23.577Z,16.42
2018-12-19T06:55:27.272Z,15.78
2018-12-19T06:56:30.965Z,16.57
2018-12-19T06:57:34.578Z,15.43
2018-12-19T06:58:38.246Z,16.48
2018-12-19T06:59:42.148Z,17.02
2018-12-19T07:00:45.770Z,16.85
2018-12-19T07:01:49.380Z,15.35
2018-12-19T07:02:52.997Z,16.62
2018-12-19T07:03:56.621Z,15.98
2018-12-19T07:05:00.245Z,15.88
2018-12-19T07:06:03.996Z,15.93
2018-12-19T07:07:07.688Z,17.20
2018-12-19T07:08:11.379Z,16.05
2018-12-19T07:09:15.073Z,16.02
2018-12-19T07:10:18.730Z,16.73
2018-12-19T07:11:23.576Z,15.75
2018-12-19T07:12:27.276Z,17.07
2018-12-19T07:13:30.904Z,16.48
2018-12-19T07:14:36.569Z,15.78
2018-12-19T07:15:40.189Z,16.67
2018-12-19T07:16:43.832Z,16.20
2018-12-19T07:17:47.686Z,16.17
2018-12-19T07:18:51.270Z,16.73
2018-12-19T07:19:54.881Z,15.83
2018-12-19T07:20:58.931Z,16.42
2018-12-19T07:22:02.545Z,16.32
2018-12-19T07:23:06.165Z,15.28
2018-12-19T07:24:09.853Z,15.85
2018-12-19T07:25:13.563Z,16.67
2018-12-19T07:26:17.211Z,16.20
2018-12-19T07:27:20.826Z,15.30
2018-12-19T07:28:24.523Z,16.32
2018-12-19T07:29:28.234Z,16.85
2018-12-19T07:30:31.845Z,17.02
2018-12-19T07:31:35.537Z,16.87
2018-12-19T07:32:39.217Z,16.70
2018-12-19T07:33:43.156Z,16.42
2018-12-19T07:34:46.933Z,16.75
2018-12-19T07:35:50.730Z,15.95
2018-12-19T07:36:54.359Z,16.10
2018-12-19T07:37:58.156Z,16.65
2018-12-19T07:39:01.740Z,16.45
2018-12-19T07:40:05.747Z,16.67
2018-12-19T07:41:09.340Z,16.17
2018-12-19T07:42:12.973Z,16.35
2018-12-19T07:43:16.585Z,15.65
2018-12-19T07:44:21.133Z,16.52
2018-12-19T07:45:24.752Z,16.25
2018-12-19T07:46:28.377Z,16.32
2018-12-19T07:47:31.989Z,16.52
2018-12-19T07:48:35.797Z,16.17
2018-12-19T07:49:39.483Z,16.25
2018-12-19T07:50:43.176Z,17.00
2018-12-19T07:51:46.808Z,16.95
2018-12-19T07:52:50.428Z,16.35
2018-12-19T07:53:54.049Z,15.80
2018-12-19T07:54:57.752Z,16.20
2018-12-19T07:56:01.585Z,16.67
2018-12-19T07:57:05.239Z,15.55
2018-12-19T07:58:08.837Z,16.10
2018-12-19T07:59:12.506Z,16.00
2018-12-19T08:00:27.458Z,16.15
2018-12-19T08:01:28.232Z,16.57
2018-12-19T08:02:31.853Z,17.62
2018-12-19T08:03:35.488Z,15.32
2018-12-19T08:04:39.184Z,16.52
2018-12-19T08:05:42.872Z,15.93
2018-12-19T08:06:46.445Z,16.87
2018-12-19T08:07:50.142Z,16.12
2018-12-19T08:08:53.917Z,16.15
2018-12-19T08:09:57.628Z,16.37
2018-12-19T08:11:01.373Z,16.00
2018-12-19T08:12:05.065Z,16.87
2018-12-19T08:13:08.687Z,16.82
2018-12-19T08:14:12.389Z,16.62
2018-12-19T08:15:16.081Z,16.30
2018-12-19T08:16:19.711Z,15.32
2018-12-19T08:17:23.329Z,15.98
2018-12-19T08:18:26.979Z,16.02
2018-12-19T08:19:30.671Z,15.43
2018-12-19T08:20:34.467Z,16.60
2018-12-19T08:21:38.364Z,15.85
2018-12-19T08:22:41.971Z,15.78
2018-12-19T08:23:45.586Z,16.67
2018-12-19T08:24:49.220Z,16.15
2018-12-19T08:25:52.908Z,16.12
2018-12-19T08:26:56.625Z,16.27
2018-12-19T08:28:00.318Z,15.70
2018-12-19T08:29:04.109Z,16.67
2018-12-19T08:30:09.408Z,16.10
2018-12-19T08:31:13.041Z,15.75
2018-12-19T08:32:16.737Z,15.93
2018-12-19T08:33:22.313Z,15.65
2018-12-19T08:34:26.056Z,15.77
2018-12-19T08:35:29.750Z,15.48
2018-12-19T08:36:33.413Z,14.87
2018-12-19T08:37:37.033Z,14.93
2018-12-19T08:38:40.745Z,15.30
2018-12-19T08:39:44.538Z,15.43
2018-12-19T08:40:48.216Z,14.25
2018-12-19T08:41:52.081Z,15.30
2018-12-19T08:42:55.724Z,17.05
2018-12-19T08:43:59.466Z,15.13
2018-12-19T08:45:03.667Z,15.78
2018-12-19T08:46:14.424Z,15.43
2018-12-19T08:47:13.850Z,14.78
2018-12-19T08:48:17.645Z,17.48
2018-12-19T08:49:21.234Z,16.32
2018-12-19T08:50:24.917Z,15.88
2018-12-19T08:51:28.540Z,16.60
2018-12-19T08:52:32.213Z,16.32
2018-12-19T08:53:35.853Z,15.18
2018-12-19T08:54:39.610Z,15.53
2018-12-19T08:55:43.290Z,16.37
2018-12-19T08:56:46.933Z,15.95
2018-12-19T08:57:50.537Z,15.85
2018-12-19T08:58:54.255Z,16.97
2018-12-19T08:59:57.956Z,16.37
2018-12-19T09:01:01.652Z,15.65
2018-12-19T09:02:05.449Z,16.77
2018-12-19T09:03:09.039Z,17.87
2018-12-19T09:04:12.842Z,15.95
2018-12-19T09:05:16.442Z,16.10
2018-12-19T09:06:20.045Z,17.80
2018-12-19T09:07:23.680Z,17.98
2018-12-19T09:08:27.398Z,17.12
2018-12-19T09:09:31.863Z,17.52
2018-12-19T09:10:35.608Z,17.40
2018-12-19T09:11:39.255Z,15.43
2018-12-19T09:12:42.873Z,17.40
2018-12-19T09:13:46.561Z,17.55
2018-12-19T09:14:50.285Z,17.65
2018-12-19T09:15:53.945Z,16.95
2018-12-19T09:16:57.595Z,16.02
2018-12-19T09:18:02.076Z,16.25
2018-12-19T09:19:05.690Z,16.15
2018-12-19T09:20:09.830Z,16.57
2018-12-19T09:21:13.581Z,17.67
2018-12-19T09:22:17.477Z,18.60
2018-12-19T09:23:21.124Z,17.07
2018-12-19T09:24:24.813Z,16.07
2018-12-19T09:25:28.586Z,16.95
2018-12-19T09:26:32.229Z,16.32
2018-12-19T09:27:35.924Z,17.02
2018-12-19T09:28:39.609Z,15.68
2018-12-19T09:29:43.298Z,17.10
2018-12-19T09:30:47.054Z,16.62
2018-12-19T09:31:50.714Z,16.97
2018-12-19T09:32:54.333Z,16.10
2018-12-19T09:33:58.072Z,16.50
2018-12-19T09:35:01.766Z,16.00
2018-12-19T09:36:05.417Z,16.25
2018-12-19T09:37:09.171Z,16.42
2018-12-19T09:38:12.890Z,15.78
2018-12-19T09:39:16.534Z,16.52
2018-12-19T09:40:20.332Z,16.17
2018-12-19T09:41:24.007Z,15.72
2018-12-19T09:42:27.627Z,16.70
2018-12-19T09:43:31.314Z,16.67
2018-12-19T09:44:35.000Z,16.12
2018-12-19T09:45:38.698Z,17.05
2018-12-19T09:46:42.392Z,16.55
2018-12-19T09:47:46.082Z,15.83
2018-12-19T09:48:49.701Z,16.05
2018-12-19T09:49:53.336Z,16.45
2018-12-19T09:50:57.061Z,16.20
2018-12-19T09:52:00.747Z,15.83
2018-12-19T09:53:04.387Z,15.40
2018-12-19T09:54:07.994Z,17.10
2018-12-19T09:55:11.612Z,14.93
2018-12-19T09:56:15.301Z,16.30
2018-12-19T09:57:19.722Z,16.37
2018-12-19T09:58:23.362Z,15.72
2018-12-19T09:59:26.986Z,16.45
2018-12-19T10:00:30.597Z,16.70
2018-12-19T10:01:34.353Z,17.70
2018-12-19T10:02:37.992Z,16.47
2018-12-19T10:03:41.632Z,16.52
2018-12-19T10:04:45.233Z,16.90
2018-12-19T10:05:48.925Z,16.55
2018-12-19T10:06:52.655Z,16.77
2018-12-19T10:07:56.346Z,16.73
2018-12-19T10:08:59.914Z,16.23
2018-12-19T10:10:03.786Z,17.40
2018-12-19T10:11:07.417Z,17.55
2018-12-19T10:12:11.190Z,17.27
2018-12-19T10:13:14.892Z,16.37
2018-12-19T10:14:18.573Z,16.25
2018-12-19T10:15:22.300Z,16.83
2018-12-19T10:16:25.913Z,16.50
2018-12-19T10:17:29.562Z,16.48
2018-12-19T10:18:33.184Z,16.32
2018-12-19T10:19:36.833Z,16.17
2018-12-19T10:20:40.554Z,15.88
2018-12-19T10:21:44.144Z,16.48
2018-12-19T10:22:49.746Z,16.25
2018-12-19T10:23:53.442Z,15.30
2018-12-19T10:25:02.850Z,16.03
2018-12-19T10:26:12.485Z,15.53
2018-12-19T10:27:20.364Z,15.30
2018-12-19T10:28:29.368Z,14.70
2018-12-19T10:29:32.998Z,14.13
2018-12-19T10:30:42.131Z,14.55
2018-12-19T10:31:45.809Z,15.00
2018-12-19T10:32:56.160Z,14.33
2018-12-19T10:33:59.837Z,14.53
2018-12-19T10:35:03.663Z,14.53
2018-12-19T10:36:07.378Z,14.63
2018-12-19T10:37:11.229Z,14.40
2018-12-19T10:38:14.925Z,14.47
2018-12-19T10:39:18.689Z,14.10
2018-12-19T10:40:22.363Z,13.32
2018-12-19T10:41:26.146Z,13.93
2018-12-19T10:42:29.843Z,12.80
2018-12-19T10:43:33.420Z,13.98
2018-12-19T10:44:37.192Z,13.20
2018-12-19T10:45:40.806Z,13.23
2018-12-19T10:46:44.556Z,13.60
2018-12-19T10:47:48.176Z,13.90
2018-12-19T10:48:51.929Z,13.77
2018-12-19T10:49:55.564Z,14.63
2018-12-19T10:50:59.249Z,13.62
2018-12-19T10:52:02.921Z,14.20
2018-12-19T10:53:06.706Z,14.45
2018-12-19T10:54:10.402Z,14.65
2018-12-19T10:55:14.152Z,13.67
2018-12-19T10:56:17.743Z,13.13
2018-12-19T10:57:21.393Z,14.60
2018-12-19T10:58:25.031Z,14.17
2018-12-19T10:59:28.637Z,13.17
2018-12-19T11:00:37.837Z,14.57
2018-12-19T11:01:41.538Z,14.23
2018-12-19T11:02:45.202Z,13.47
2018-12-19T11:03:48.893Z,14.00
2018-12-19T11:04:52.488Z,14.17
2018-12-19T11:05:56.200Z,13.73
2018-12-19T11:06:59.790Z,13.77
2018-12-19T11:08:03.467Z,14.00
2018-12-19T11:09:07.641Z,13.70
2018-12-19T11:10:11.401Z,14.47
2018-12-19T11:11:15.176Z,14.83
2018-12-19T11:12:18.806Z,14.70
2018-12-19T11:13:22.409Z,14.07
2018-12-19T11:14:26.507Z,14.63
2018-12-19T11:15:30.137Z,14.87
2018-12-19T11:16:33.893Z,14.40
2018-12-19T11:17:37.566Z,14.37
2018-12-19T11:18:41.190Z,15.00
2018-12-19T11:19:44.800Z,15.23
2018-12-19T11:20:48.713Z,14.97
2018-12-19T11:21:52.390Z,15.90
2018-12-19T11:22:56.066Z,13.70
2018-12-19T11:23:59.756Z,14.57
2018-12-19T11:25:03.473Z,15.13
2018-12-19T11:26:07.222Z,14.60
2018-12-19T11:27:10.827Z,14.63
2018-12-19T11:28:14.464Z,14.90
2018-12-19T11:29:18.073Z,15.33
2018-12-19T11:30:21.763Z,14.60
2018-12-19T11:31:25.425Z,15.10
2018-12-19T11:32:29.099Z,15.10
2018-12-19T11:33:32.713Z,15.60
2018-12-19T11:34:36.335Z,14.83
2018-12-19T11:35:40.084Z,14.37
2018-12-19T11:36:43.693Z,14.83
2018-12-19T11:37:47.372Z,14.07
2018-12-19T11:38:51.083Z,16.00
2018-12-19T11:39:54.745Z,14.70
2018-12-19T11:40:58.425Z,14.93
2018-12-19T11:42:02.162Z,15.83
2018-12-19T11:43:05.802Z,15.33
2018-12-19T11:44:09.497Z,15.37
2018-12-19T11:45:13.107Z,15.27
2018-12-19T11:46:16.730Z,17.27
2018-12-19T11:47:20.347Z,16.67
2018-12-19T11:48:23.989Z,16.17
2018-12-19T11:49:27.690Z,15.07
2018-12-19T11:50:31.297Z,17.17
2018-12-19T11:51:34.903Z,15.23
2018-12-19T11:52:38.585Z,16.13
2018-12-19T11:53:42.276Z,16.77
2018-12-19T11:54:45.941Z,17.20
2018-12-19T11:55:49.693Z,17.23
2018-12-19T11:56:53.378Z,17.67
2018-12-19T11:57:56.993Z,16.23
2018-12-19T11:59:00.604Z,17.97
2018-12-19T12:00:05.876Z,17.37
2018-12-19T12:01:09.493Z,17.63
2018-12-19T12:02:13.168Z,17.97
2018-12-19T12:03:16.939Z,17.43
2018-12-19T12:04:20.632Z,17.27
2018-12-19T12:05:24.210Z,17.63
2018-12-19T12:06:27.965Z,17.23
2018-12-19T12:07:31.705Z,17.13
2018-12-19T12:08:35.313Z,18.80
2018-12-19T12:09:39.005Z,18.33
2018-12-19T12:10:42.678Z,18.10
2018-12-19T12:11:46.317Z,18.17
2018-12-19T12:12:49.925Z,17.67
2018-12-19T12:13:53.537Z,17.50
2018-12-19T12:14:57.158Z,19.20
2018-12-19T12:16:00.945Z,18.93
2018-12-19T12:17:04.741Z,19.33
2018-12-19T12:18:08.332Z,19.10
2018-12-19T12:19:11.923Z,18.87
2018-12-19T12:20:15.528Z,19.07
2018-12-19T12:21:19.141Z,19.67
2018-12-19T12:22:22.776Z,20.90
2018-12-19T12:23:26.374Z,20.73
2018-12-19T12:24:30.049Z,19.67
2018-12-19T12:25:33.731Z,19.37
2018-12-19T12:26:37.469Z,20.83
2018-12-19T12:27:41.258Z,19.63
2018-12-19T12:28:44.848Z,20.47
2018-12-19T12:29:48.536Z,20.50
2018-12-19T12:30:52.210Z,20.37
2018-12-19T12:31:55.894Z,19.27
2018-12-19T12:32:59.565Z,20.40
2018-12-19T12:34:03.369Z,19.83
2018-12-19T12:35:07.597Z,19.73
2018-12-19T12:36:11.354Z,19.67
2018-12-19T12:37:14.958Z,21.40
2018-12-19T12:38:18.570Z,21.03
2018-12-19T12:39:22.181Z,20.87
2018-12-19T12:40:25.797Z,21.27
2018-12-19T12:41:29.457Z,20.60
2018-12-19T12:42:33.077Z,20.90
2018-12-19T12:43:36.855Z,21.10
2018-12-19T12:44:40.712Z,20.33
2018-12-19T12:45:44.398Z,20.43
2018-12-19T12:46:48.023Z,18.90
2018-12-19T12:47:51.729Z,20.93
2018-12-19T12:48:55.298Z,20.30
2018-12-19T12:49:58.907Z,21.77
2018-12-19T12:51:02.613Z,21.30
2018-12-19T12:52:06.290Z,22.33
2018-12-19T12:53:09.905Z,19.90
2018-12-19T12:54:13.589Z,21.30
2018-12-19T12:55:17.269Z,22.00
2018-12-19T12:56:20.969Z,21.73
2018-12-19T12:57:24.655Z,20.80
2018-12-19T12:58:28.257Z,21.73
2018-12-19T12:59:31.864Z,20.07
2018-12-19T13:00:35.493Z,20.60
2018-12-19T13:01:39.261Z,19.93
2018-12-19T13:02:42.941Z,21.13
2018-12-19T13:03:46.585Z,21.23
2018-12-19T13:04:50.282Z,21.13
2018-12-19T13:05:53.962Z,20.00
2018-12-19T13:06:57.642Z,19.57
2018-12-19T13:08:01.248Z,21.43
2018-12-19T13:09:07.501Z,20.67
2018-12-19T13:10:11.519Z,19.60
2018-12-19T13:11:15.265Z,20.70
2018-12-19T13:12:18.890Z,20.43
2018-12-19T13:13:22.575Z,19.97
2018-12-19T13:14:26.345Z,21.23
2018-12-19T13:15:35.425Z,20.93
2018-12-19T13:16:39.110Z,21.23
2018-12-19T13:17:43.394Z,21.03
2018-12-19T13:18:47.009Z,21.40
2018-12-19T13:19:50.702Z,20.80
2018-12-19T13:20:54.498Z,22.53
2018-12-19T13:21:58.071Z,22.47
2018-12-19T13:23:01.786Z,20.97
2018-12-19T13:24:05.465Z,21.20
2018-12-19T13:25:09.228Z,22.40
2018-12-19T13:26:12.912Z,20.90
2018-12-19T13:27:16.537Z,21.77
2018-12-19T13:28:20.153Z,21.70
2018-12-19T13:29:23.765Z,21.57
2018-12-19T13:30:27.528Z,21.63
2018-12-19T13:31:31.146Z,20.67
2018-12-19T13:32:34.758Z,21.77
2018-12-19T13:33:38.377Z,20.53
2018-12-19T13:34:42.071Z,22.03
2018-12-19T13:35:45.685Z,22.97
2018-12-19T13:36:49.293Z,22.67
2018-12-19T13:37:52.980Z,22.00
2018-12-19T13:38:56.653Z,21.43
2018-12-19T13:40:00.271Z,21.93
2018-12-19T13:41:04.102Z,20.73